Terminal Aerodrome Forecast
Issued by NWS Amarillo, TX

Home | Current Version | Previous Version | Text Only | Print | Product List | Glossary On
Versions: 1 2 3 4 5 6 7 8 9 10 11 12
000
FTUS44 KAMA 271740
TAFAMA
TAF
KAMA 271740Z 2718/2818 21017G26KT P6SM SCT090 BKN200
     FM280200 18014KT P6SM SCT100 BKN150 PROB30 2807/2812 -SHRA
      BKN080
     FM281400 34011KT P6SM SCT080 BKN150=

USA.gov is the U.S. government's official web portal to all federal, state and local government web resources and services.